Time;durP1;ratioP1;P1;durP2;ratioP2;P2;SDS_P1;SDS_P2;PMS_P1;PMS_P2;Temp;Humidity;BMP_temperature;BMP_pressure;BME280_temperature;BME280_humidity;BME280_pressure;Samples;Min_cycle;Max_cycle;Signal;HPM_P1;HPM_P2
2023/06/13 00:02:25;;;;;;;;;;;;;;;25.14;51.64;99484.72;7311718;19;129369;-35
2023/06/13 00:04:51;;;;;;;30.13;3.80;;;;;;;25.06;51.25;99482.88;7311463;19;129418;-37
2023/06/13 00:07:17;;;;;;;25.70;3.20;;;;;;;25.05;51.57;99475.16;7312027;19;129331;-38
2023/06/13 00:09:43;;;;;;;25.43;3.23;;;;;;;25.04;51.26;99476.16;7311206;19;130192;-34
2023/06/13 00:12:09;;;;;;;32.80;3.65;;;;;;;25.05;51.21;99478.63;7309648;19;129460;-36
2023/06/13 00:14:35;;;;;;;50.42;4.70;;;;;;;25.03;51.46;99479.75;7310076;19;129048;-35
2023/06/13 00:17:02;;;;;;;28.23;3.40;;;;;;;25.01;51.39;99479.09;7311151;19;129200;-37
2023/06/13 00:19:28;;;;;;;46.80;4.50;;;;;;;25.00;50.87;99477.47;7310212;19;129339;-39
2023/06/13 00:21:56;;;;;;;30.63;3.35;;;;;;;25.06;50.97;99476.78;7310553;19;129146;-35
2023/06/13 00:24:22;;;;;;;46.08;4.25;;;;;;;25.05;51.05;99469.91;7310942;19;129000;-39
2023/06/13 00:26:48;;;;;;;28.38;3.42;;;;;;;25.05;51.06;99469.91;7307768;19;129632;-38
2023/06/13 00:29:13;;;;;;;29.90;3.80;;;;;;;25.06;50.78;99482.06;7308523;19;130697;-37
2023/06/13 00:31:38;;;;;;;36.00;3.90;;;;;;;25.04;51.51;99478.78;7309784;19;129000;-33
2023/06/13 00:34:04;;;;;;;43.77;4.13;;;;;;;25.04;51.55;99476.16;7311981;19;129307;-34
2023/06/13 00:36:33;;;;;;;24.77;3.20;;;;;;;25.03;51.40;99471.88;7309205;19;129340;-36
2023/06/13 00:38:59;;;;;;;26.08;3.30;;;;;;;25.04;50.66;99468.28;7310001;19;130704;-37
2023/06/13 00:41:25;;;;;;;47.07;4.77;;;;;;;25.03;51.52;99466.59;7309981;19;129357;-42
2023/06/13 00:43:50;;;;;;;37.00;3.70;;;;;;;25.03;51.44;99466.59;7311805;19;129008;-37
2023/06/13 00:46:28;;;;;;;56.57;5.03;;;;;;;24.98;51.05;99450.50;7307600;19;129474;-35
2023/06/13 00:48:57;;;;;;;23.67;3.22;;;;;;;25.02;51.12;99459.72;7310847;19;130212;-35
2023/06/13 00:51:23;;;;;;;79.32;6.55;;;;;;;25.01;51.09;99453.63;7308545;19;129170;-35
2023/06/13 00:53:50;;;;;;;42.27;4.20;;;;;;;24.98;50.86;99446.06;7308362;19;129255;-35
2023/06/13 00:56:15;;;;;;;39.53;4.68;;;;;;;25.04;51.06;99453.28;7309318;19;129769;-43
2023/06/13 00:58:41;;;;;;;30.03;3.70;;;;;;;25.01;50.60;99455.41;7310313;19;129726;-38
2023/06/13 01:01:10;;;;;;;26.67;3.67;;;;;;;25.02;50.78;99451.81;7310016;19;128729;-39
2023/06/13 01:03:36;;;;;;;49.60;4.88;;;;;;;25.02;51.05;99454.44;7309364;19;129039;-39
2023/06/13 01:06:02;;;;;;;;;;;;;;;25.10;51.18;99454.44;7309461;19;130153;-38
2023/06/13 01:08:28;;;;;;;36.60;3.85;;;;;;;25.03;51.00;99453.44;7310204;19;130375;-38
2023/06/13 01:11:09;;;;;;;24.17;3.50;;;;;;;25.03;51.40;99445.56;7309460;19;128943;-42
2023/06/13 01:13:57;;;;;;;33.92;3.70;;;;;;;25.05;51.65;99451.47;7316487;19;129566;-39
2023/06/13 01:16:33;;;;;;;36.03;4.13;;;;;;;25.02;51.44;99449.19;7315134;19;129930;-37
2023/06/13 01:19:00;;;;;;;43.53;4.20;;;;;;;25.02;50.97;99450.03;7315414;19;129864;-40
2023/06/13 01:21:26;;;;;;;;;;;;;;;25.11;50.90;99442.91;7315134;19;128820;-39
2023/06/13 01:24:02;;;;;;;28.83;3.58;;;;;;;25.05;51.09;99443.59;7316602;19;129250;-33
2023/06/13 01:26:57;;;;;;;37.30;4.05;;;;;;;25.02;51.23;99443.94;7314778;19;129113;-35
2023/06/13 01:29:23;;;;;;;30.08;3.60;;;;;;;25.03;51.20;99448.19;7314589;19;130419;-43
2023/06/13 01:31:55;;;;;;;19.43;3.00;;;;;;;25.02;51.66;99438.66;7315763;19;130026;-35
2023/06/13 01:34:21;;;;;;;42.33;4.50;;;;;;;24.99;51.50;99434.53;7315462;19;129319;-39
2023/06/13 01:36:47;;;;;;;;;;;;;;;24.98;51.59;99418.94;7314892;19;129577;-40
2023/06/13 01:39:13;;;;;;;35.28;3.80;;;;;;;25.02;51.18;99428.97;7315692;19;129736;-40
2023/06/13 01:41:38;;;;;;;25.20;3.07;;;;;;;25.03;51.15;99435.03;7315771;19;128854;-36
2023/06/13 01:44:05;;;;;;;49.27;4.57;;;;;;;25.02;50.85;99434.25;7315772;19;129325;-34
2023/06/13 01:46:52;;;;;;;22.70;3.13;;;;;;;25.00;50.99;99424.84;7314574;19;129115;-37
2023/06/13 01:49:27;;;;;;;34.78;3.85;;;;;;;25.03;51.28;99430.59;7314647;19;130261;-39
2023/06/13 01:52:01;;;;;;;23.23;3.25;;;;;;;25.04;50.92;99431.44;7315938;19;128847;-34
2023/06/13 01:54:32;;;;;;;40.55;4.13;;;;;;;25.01;51.16;99423.84;7315854;19;129076;-37
2023/06/13 01:57:02;;;;;;;32.50;3.78;;;;;;;25.02;51.31;99425.53;7316334;19;129558;-35
2023/06/13 01:59:29;;;;;;;33.40;3.55;;;;;;;25.02;51.49;99423.72;7313942;19;129359;-34
2023/06/13 02:01:56;;;;;;;43.55;4.45;;;;;;;24.91;50.69;99412.69;7314418;19;129257;-37
2023/06/13 02:04:22;;;;;;;28.77;3.85;;;;;;;25.01;51.16;99418.59;7315017;19;128958;-40
2023/06/13 02:06:47;;;;;;;25.27;3.40;;;;;;;25.01;51.02;99418.59;7312024;19;129611;-42
2023/06/13 02:09:13;;;;;;;39.90;3.92;;;;;;;24.92;50.91;99403.81;7315071;19;131141;-36
2023/06/13 02:11:39;;;;;;;36.07;3.93;;;;;;;25.02;50.57;99417.63;7314328;19;130593;-35
2023/06/13 02:14:06;;;;;;;57.47;5.10;;;;;;;25.01;50.99;99410.69;7314804;19;129110;-40
2023/06/13 02:16:31;;;;;;;27.33;3.65;;;;;;;24.91;50.79;99403.00;7313222;19;129152;-35
2023/06/13 02:19:00;;;;;;;49.57;4.33;;;;;;;25.04;50.82;99410.41;7314888;19;130317;-38
2023/06/13 02:21:28;;;;;;;29.35;3.78;;;;;;;25.01;51.32;99410.69;7315006;19;130033;-35
2023/06/13 02:23:53;;;;;;;25.02;3.47;;;;;;;24.99;51.06;99410.06;7312230;19;129149;-42
2023/06/13 02:26:19;;;;;;;31.27;3.80;;;;;;;24.98;51.53;99414.50;7312170;19;128934;-41
2023/06/13 02:28:45;;;;;;;36.70;3.90;;;;;;;25.01;51.00;99411.53;7314345;19;130284;-39
2023/06/13 02:31:11;;;;;;;30.20;3.40;;;;;;;25.01;51.03;99410.69;7314071;19;128919;-39
2023/06/13 02:33:38;;;;;;;26.93;3.50;;;;;;;25.00;50.63;99414.34;7315302;19;129273;-35
2023/06/13 02:36:03;;;;;;;;;;;;;;;25.07;50.80;99416.13;7312326;19;129353;-38
2023/06/13 02:38:29;;;;;;;43.10;4.40;;;;;;;25.01;51.07;99415.97;7314728;19;129273;-41
2023/06/13 02:40:54;;;;;;;25.88;3.53;;;;;;;25.01;51.23;99410.69;7313007;19;129004;-37
2023/06/13 02:43:20;;;;;;;25.93;3.43;;;;;;;25.00;50.79;99416.97;7314276;19;128847;-37
2023/06/13 02:45:45;;;;;;;44.30;4.17;;;;;;;24.91;50.63;99404.78;7311297;19;130283;-39
2023/06/13 02:48:11;;;;;;;62.77;5.37;;;;;;;25.01;50.84;99421.22;7314063;19;129228;-35
2023/06/13 02:50:37;;;;;;;63.85;5.90;;;;;;;24.98;51.22;99424.19;7313057;19;128850;-35
2023/06/13 02:53:02;;;;;;;46.07;4.10;;;;;;;25.00;50.57;99424.84;7315101;19;129332;-33
2023/06/13 02:55:29;;;;;;;37.23;4.10;;;;;;;25.00;51.01;99420.44;7312513;19;130644;-37
2023/06/13 02:57:55;;;;;;;37.20;3.85;;;;;;;24.99;51.03;99423.22;7312985;19;129377;-41
2023/06/13 03:00:21;;;;;;;50.37;4.87;;;;;;;25.01;50.65;99426.47;7313934;19;129528;-45
2023/06/13 03:02:46;;;;;;;15.20;2.90;;;;;;;25.01;50.95;99437.00;7313835;19;129979;-34
2023/06/13 03:05:16;;;;;;;42.13;4.33;;;;;;;25.00;51.23;99427.47;7312379;19;129070;-40
2023/06/13 03:07:46;;;;;;;43.30;4.10;;;;;;;25.00;51.03;99430.13;7313183;19;129494;-43
2023/06/13 03:10:12;;;;;;;32.60;4.25;;;;;;;25.01;50.83;99426.47;7313508;19;128977;-39
2023/06/13 03:12:39;;;;;;;26.73;3.30;;;;;;;24.99;50.68;99428.47;7310580;19;129428;-37
2023/06/13 03:15:05;;;;;;;;;;;;;;;25.09;50.98;99418.63;7313142;19;130360;-40
2023/06/13 03:17:30;;;;;;;39.00;3.83;;;;;;;24.99;51.26;99418.75;7312364;19;129328;-38
2023/06/13 03:19:55;;;;;;;44.87;4.63;;;;;;;25.00;50.96;99425.69;7313511;19;128886;-34
2023/06/13 03:22:21;;;;;;;38.50;3.77;;;;;;;25.00;50.73;99424.84;7311930;19;128864;-36
2023/06/13 03:24:46;;;;;;;40.00;3.88;;;;;;;24.96;50.75;99410.38;7313102;19;129498;-35
2023/06/13 03:27:12;;;;;;;32.43;3.60;;;;;;;24.99;50.75;99417.97;7313182;19;129273;-37
2023/06/13 03:29:41;;;;;;;35.10;3.85;;;;;;;25.00;51.18;99423.06;7312795;19;129098;-34
2023/06/13 03:32:08;;;;;;;26.58;3.70;;;;;;;24.99;51.38;99423.22;7311844;19;129961;-36
2023/06/13 03:34:37;;;;;;;;;;;;;;;25.08;51.08;99422.22;7309336;19;129275;-34
2023/06/13 03:37:05;;;;;;;26.23;3.10;;;;;;;24.92;50.96;99409.09;7313170;19;130432;-37
2023/06/13 03:39:30;;;;;;;31.80;3.63;;;;;;;24.93;50.51;99413.34;7311129;19;129133;-36
2023/06/13 03:41:56;;;;;;;43.90;4.40;;;;;;;24.99;50.86;99417.97;7312227;19;129508;-33
2023/06/13 03:44:21;;;;;;;30.65;3.50;;;;;;;24.90;50.61;99404.00;7311461;19;129478;-39
2023/06/13 03:46:46;;;;;;;25.90;3.37;;;;;;;25.01;51.04;99421.22;7309340;19;130384;-35
2023/06/13 03:49:12;;;;;;;27.48;3.60;;;;;;;24.93;50.44;99397.56;7312936;19;130048;-38
2023/06/13 03:51:37;;;;;;;25.57;3.43;;;;;;;25.00;51.22;99419.59;7312691;19;129031;-38
2023/06/13 03:54:02;;;;;;;53.40;5.10;;;;;;;24.98;50.91;99417.13;7310569;19;129278;-32
2023/06/13 03:56:28;;;;;;;43.70;4.22;;;;;;;25.00;50.86;99414.34;7310262;19;129726;-36
2023/06/13 03:58:53;;;;;;;104.60;7.28;;;;;;;24.97;51.29;99418.13;7311321;19;128787;-35
2023/06/13 04:01:18;;;;;;;28.13;3.17;;;;;;;24.86;51.42;99401.88;7311367;19;129475;-35
2023/06/13 04:03:44;;;;;;;50.70;4.67;;;;;;;24.98;50.92;99416.31;7311627;19;129130;-41
2023/06/13 04:06:09;;;;;;;20.20;3.13;;;;;;;24.96;51.39;99418.28;7308136;19;129444;-36
2023/06/13 04:08:38;;;;;;;32.80;3.77;;;;;;;24.97;50.64;99417.31;7312443;19;128794;-40
2023/06/13 04:11:04;;;;;;;20.13;3.30;;;;;;;24.97;51.56;99422.56;7308390;19;129027;-33
2023/06/13 04:13:29;;;;;;;36.13;3.70;;;;;;;24.97;51.33;99422.56;7311463;19;129500;-36
2023/06/13 04:15:55;;;;;;;38.27;4.60;;;;;;;24.96;51.12;99413.84;7310222;19;130819;-38
2023/06/13 04:18:21;;;;;;;29.43;3.73;;;;;;;24.90;51.27;99398.72;7311762;19;129348;-41
2023/06/13 04:20:47;;;;;;;12.97;2.20;;;;;;;24.97;51.41;99412.88;7311152;19;129679;-35
2023/06/13 04:23:13;;;;;;;;;;;;;;;25.03;51.33;99408.72;7312758;19;130988;-36
2023/06/13 04:25:39;;;;;;;24.73;3.38;;;;;;;24.98;51.00;99422.41;7310460;19;130451;-43
2023/06/13 04:28:07;;;;;;;33.23;3.83;;;;;;;24.95;50.74;99411.38;7310341;19;129034;-37
2023/06/13 04:30:32;;;;;;;103.63;8.07;;;;;;;24.96;51.05;99413.84;7308790;19;129940;-34
2023/06/13 04:32:58;;;;;;;46.87;4.40;;;;;;;24.94;50.99;99407.91;7309978;19;130645;-34
2023/06/13 04:35:25;;;;;;;33.55;3.85;;;;;;;24.94;50.74;99407.13;7310079;19;130427;-34
2023/06/13 04:37:51;;;;;;;27.23;3.28;;;;;;;24.95;50.69;99411.38;7310237;19;128906;-37
2023/06/13 04:40:17;;;;;;;32.38;3.40;;;;;;;24.85;51.46;99400.19;7310550;19;129328;-35
2023/06/13 04:42:47;;;;;;;43.00;4.33;;;;;;;24.94;50.87;99421.06;7309751;19;130167;-36
2023/06/13 04:45:13;;;;;;;36.33;4.05;;;;;;;24.93;51.14;99413.34;7309611;19;129769;-34
2023/06/13 04:47:39;;;;;;;26.27;3.53;;;;;;;24.95;50.97;99414.84;7315996;19;129201;-33
2023/06/13 04:50:06;;;;;;;27.80;3.47;;;;;;;24.95;50.78;99421.91;7316380;19;129082;-37
2023/06/13 04:52:32;;;;;;;;;;;;;;;24.95;50.88;99406.94;7317039;19;129426;-36
2023/06/13 04:55:00;;;;;;;29.15;4.00;;;;;;;24.97;50.57;99412.03;7314498;19;132387;-36
2023/06/13 04:57:26;;;;;;;30.95;3.70;;;;;;;24.92;50.92;99416.97;7317249;19;129486;-40
2023/06/13 04:59:52;;;;;;;37.80;4.20;;;;;;;24.94;50.92;99422.91;7316985;19;129225;-41
2023/06/13 05:02:17;;;;;;;59.47;5.40;;;;;;;24.96;51.29;99421.72;7316719;19;130281;-43
2023/06/13 05:04:42;;;;;;;56.00;4.80;;;;;;;24.88;51.23;99399.88;7317287;19;129192;-37
2023/06/13 05:07:08;;;;;;;37.00;3.97;;;;;;;24.97;51.05;99418.13;7315624;19;129411;-35
2023/06/13 05:09:34;;;;;;;32.47;3.73;;;;;;;24.96;51.67;99415.63;7316896;19;129658;-34
2023/06/13 05:11:59;;;;;;;52.97;4.80;;;;;;;24.95;51.41;99416.63;7313158;19;130727;-35
2023/06/13 05:14:25;;;;;;;36.93;4.10;;;;;;;24.87;50.99;99398.25;7316376;19;130408;-39
2023/06/13 05:16:53;;;;;;;28.60;3.57;;;;;;;24.95;51.08;99417.47;7316157;19;129074;-38
2023/06/13 05:19:19;;;;;;;36.17;4.22;;;;;;;24.93;51.43;99413.34;7315717;19;129283;-37
2023/06/13 05:21:44;;;;;;;33.77;3.80;;;;;;;24.91;51.51;99399.53;7316189;19;130834;-36
2023/06/13 05:24:10;;;;;;;29.50;3.20;;;;;;;24.95;51.38;99409.56;7313983;19;130063;-41
2023/06/13 05:26:36;;;;;;;26.17;3.35;;;;;;;24.90;50.82;99382.13;7315222;19;129343;-35
2023/06/13 05:29:05;;;;;;;29.00;3.57;;;;;;;24.96;51.65;99397.22;7312967;19;129244;-32
2023/06/13 05:31:33;;;;;;;39.33;4.30;;;;;;;24.95;51.45;99395.59;7314712;19;130240;-30
2023/06/13 05:34:00;;;;;;;34.15;3.67;;;;;;;24.95;50.69;99395.59;7315936;19;130885;-37
2023/06/13 05:36:26;;;;;;;47.58;4.72;;;;;;;24.85;51.46;99373.91;7311093;19;129565;-39
2023/06/13 05:38:52;;;;;;;36.40;3.70;;;;;;;24.99;51.10;99394.28;7314798;19;129209;-38
2023/06/13 05:41:17;;;;;;;123.93;9.37;;;;;;;24.97;51.55;99388.38;7303597;19;130536;-42
2023/06/13 05:43:42;;;;;;;28.17;3.80;;;;;;;24.96;51.10;99389.34;7315962;19;129834;-37
2023/06/13 05:46:08;;;;;;;19.53;3.20;;;;;;;25.00;51.09;99393.28;7312437;19;129045;-34
2023/06/13 05:48:33;;;;;;;34.00;4.10;;;;;;;25.02;51.07;99391.31;7313996;19;129400;-37
2023/06/13 05:50:58;;;;;;;57.47;5.10;;;;;;;25.02;50.55;99386.06;7312740;19;130549;-39
2023/06/13 05:53:24;;;;;;;29.20;3.87;;;;;;;25.03;49.84;99387.69;7315592;19;130342;-39
2023/06/13 05:55:49;;;;;;;25.60;3.73;;;;;;;25.04;49.90;99390.16;7314224;19;128945;-37
2023/06/13 05:58:14;;;;;;;53.10;5.17;;;;;;;25.08;50.65;99388.00;7311509;19;129534;-41
2023/06/13 06:00:40;;;;;;;31.57;3.53;;;;;;;25.07;49.09;99391.66;7314666;19;129450;-45
2023/06/13 06:03:06;;;;;;;24.50;3.47;;;;;;;25.06;50.10;99393.44;7314878;19;129472;-34
2023/06/13 06:05:31;;;;;;;47.83;4.70;;;;;;;25.07;50.56;99395.06;7313419;19;129359;-39
2023/06/13 06:07:56;;;;;;;42.23;4.70;;;;;;;25.10;50.49;99393.94;7315445;19;129043;-37
2023/06/13 06:10:22;;;;;;;63.80;5.73;;;;;;;25.08;50.75;99388.00;7314604;19;129323;-33
2023/06/13 06:12:47;;;;;;;32.80;4.23;;;;;;;25.08;50.56;99385.38;7314521;19;129505;-39
2023/06/13 06:15:13;;;;;;;51.47;4.90;;;;;;;25.08;50.29;99385.38;7314091;19;129034;-41
2023/06/13 06:17:38;;;;;;;38.13;4.20;;;;;;;25.10;50.39;99383.41;7314953;19;128872;-37
2023/06/13 06:20:06;;;;;;;55.40;4.85;;;;;;;25.11;50.16;99391.13;7312807;19;130168;-39
2023/06/13 06:22:31;;;;;;;30.17;3.78;;;;;;;25.11;49.94;99385.88;7313268;19;129414;-38
2023/06/13 06:24:56;;;;;;;28.90;4.10;;;;;;;25.13;50.00;99389.16;7314448;19;129118;-42
2023/06/13 06:27:22;;;;;;;53.13;5.50;;;;;;;25.08;50.55;99369.59;7311278;19;129539;-43
2023/06/13 06:29:47;;;;;;;26.13;4.03;;;;;;;25.15;50.35;99381.94;7314021;19;130229;-37
2023/06/13 06:32:12;;;;;;;22.20;3.63;;;;;;;25.17;49.89;99376.50;7312455;19;129456;-40
2023/06/13 06:34:38;;;;;;;41.30;4.77;;;;;;;25.15;49.82;99367.94;7314911;19;129268;-37
2023/06/13 06:37:04;;;;;;;46.67;4.78;;;;;;;25.17;50.27;99368.59;7314347;19;129243;-39
2023/06/13 06:39:30;;;;;;;25.00;3.55;;;;;;;25.11;50.03;99364.81;7314710;19;130175;-41
2023/06/13 06:41:55;;;;;;;73.10;6.93;;;;;;;25.12;49.62;99365.66;7311857;19;129740;-38
2023/06/13 06:44:21;;;;;;;44.47;4.63;;;;;;;25.11;50.13;99369.25;7314276;19;129079;-44
2023/06/13 06:46:46;;;;;;;57.77;5.47;;;;;;;25.07;50.19;99373.22;7311631;19;129036;-36
2023/06/13 06:49:11;;;;;;;42.57;4.87;;;;;;;25.09;49.41;99366.78;7314300;19;130428;-42
2023/06/13 06:51:37;;;;;;;26.13;3.57;;;;;;;25.11;50.08;99364.00;7314137;19;129872;-39
2023/06/13 06:54:02;;;;;;;42.07;4.43;;;;;;;25.11;49.55;99364.00;7313644;19;129067;-40
2023/06/13 06:56:28;;;;;;;40.13;4.80;;;;;;;25.04;49.70;99353.31;7311501;19;130896;-39
2023/06/13 06:58:53;;;;;;;25.27;3.33;;;;;;;25.12;49.82;99355.13;7313107;19;129690;-40
2023/06/13 07:01:18;;;;;;;29.20;4.37;;;;;;;25.16;49.07;99356.41;7313334;19;129573;-38
2023/06/13 07:03:45;;;;;;;31.17;3.87;;;;;;;25.17;50.27;99347.56;7313200;19;129266;-40
2023/06/13 07:06:11;;;;;;;48.47;5.25;;;;;;;25.18;49.44;99355.28;7312401;19;129712;-37
2023/06/13 07:08:37;;;;;;;39.97;4.22;;;;;;;25.16;49.97;99343.25;7312331;19;130899;-42
2023/06/13 07:11:02;;;;;;;36.83;4.30;;;;;;;25.19;49.78;99348.19;7312804;19;129527;-40
2023/06/13 07:13:27;;;;;;;42.30;4.33;;;;;;;25.22;49.73;99346.03;7312813;19;129958;-39
2023/06/13 07:15:53;;;;;;;31.20;4.07;;;;;;;25.29;49.52;99340.91;7313298;19;129459;-39
2023/06/13 07:18:18;;;;;;;56.80;5.80;;;;;;;25.24;48.98;99344.06;7311752;19;129935;-37
2023/06/13 07:20:46;;;;;;;32.20;4.33;;;;;;;25.22;48.86;99337.34;7312552;19;130327;-37
2023/06/13 07:23:12;;;;;;;141.40;10.10;;;;;;;25.19;49.20;99335.03;7308723;19;130023;-40
2023/06/13 07:25:42;;;;;;;86.10;6.93;;;;;;;25.23;48.26;99336.34;7311149;19;129086;-34
2023/06/13 07:28:08;;;;;;;32.58;3.90;;;;;;;25.18;48.68;99328.97;7311444;19;130052;-42
2023/06/13 07:30:35;;;;;;;58.67;5.35;;;;;;;25.22;48.09;99334.72;7309532;19;130517;-43
2023/06/13 07:33:02;;;;;;;70.65;6.25;;;;;;;25.23;48.09;99336.34;7314982;19;128913;-44
2023/06/13 07:35:27;;;;;;;76.32;6.07;;;;;;;25.19;48.19;99335.03;7304354;19;129322;-62
2023/06/13 07:37:53;;;;;;;57.33;5.40;;;;;;;25.20;47.59;99331.44;7309953;19;129525;-65
2023/06/13 07:40:23;;;;;;;134.27;9.60;;;;;;;25.19;48.21;99329.78;7306437;19;131904;-63
2023/06/13 07:42:49;;;;;;;116.50;8.10;;;;;;;25.20;47.83;99334.06;7310544;19;129225;-65
2023/06/13 07:45:14;;;;;;;40.30;4.43;;;;;;;25.16;48.02;99335.38;7309958;19;129230;-64
2023/06/13 07:47:40;;;;;;;78.63;6.37;;;;;;;25.18;47.37;99338.66;7306487;19;129372;-63
2023/06/13 07:50:05;;;;;;;33.80;4.23;;;;;;;25.15;46.91;99331.13;7308102;19;129656;-63
2023/06/13 07:52:31;;;;;;;33.80;3.90;;;;;;;25.16;47.45;99330.94;7305964;19;129978;-65
2023/06/13 07:54:57;;;;;;;45.60;4.78;;;;;;;25.17;47.29;99329.16;7308685;19;129609;-64
2023/06/13 07:57:22;;;;;;;80.20;6.27;;;;;;;25.23;47.05;99325.81;7306437;19;129015;-66
2023/06/13 07:59:48;;;;;;;73.57;5.87;;;;;;;25.28;46.34;99323.50;7307910;19;131495;-64
2023/06/13 08:02:13;;;;;;;103.47;7.17;;;;;;;25.15;46.66;99313.53;7306655;19;128704;-64
2023/06/13 08:04:38;;;;;;;46.67;4.73;;;;;;;25.23;46.90;99310.03;7307590;19;129953;-65
2023/06/13 08:07:04;;;;;;;34.87;4.13;;;;;;;25.14;47.00;99309.22;7305805;19;129966;-65
2023/06/13 08:09:29;;;;;;;52.47;4.83;;;;;;;25.19;47.25;99317.44;7307579;19;129852;-65
2023/06/13 08:11:57;;;;;;;41.67;4.50;;;;;;;25.13;46.12;99323.41;7302771;19;132256;-67
2023/06/13 08:14:22;;;;;;;70.32;5.63;;;;;;;25.14;46.71;99313.69;7307427;19;129160;-65
2023/06/13 08:16:48;;;;;;;59.47;5.23;;;;;;;25.19;46.32;99313.97;7306037;19;130129;-66
2023/06/13 08:19:13;;;;;;;105.07;7.37;;;;;;;25.27;46.27;99306.09;7306682;19;129417;-67
2023/06/13 08:21:38;;;;;;;74.57;5.43;;;;;;;25.27;45.39;99296.34;7307804;19;129657;-68
2023/06/13 08:24:04;;;;;;;59.93;5.33;;;;;;;25.31;46.58;99312.63;7314167;19;129283;-66
2023/06/13 08:26:32;;;;;;;29.93;3.90;;;;;;;25.30;45.68;99306.53;7313738;19;129062;-67
2023/06/13 08:29:01;;;;;;;57.67;5.28;;;;;;;25.23;46.46;99307.41;7312716;19;129514;-66
2023/06/13 08:31:27;;;;;;;85.97;6.78;;;;;;;25.28;46.39;99305.09;7312408;19;129537;-66
2023/06/13 08:33:55;;;;;;;105.63;7.20;;;;;;;25.19;46.32;99304.28;7311535;19;130180;-67
2023/06/13 08:36:21;;;;;;;39.88;4.50;;;;;;;25.15;46.85;99304.81;7313526;19;129278;-67
2023/06/13 08:38:46;;;;;;;43.97;4.50;;;;;;;25.14;47.33;99297.91;7313881;19;129605;-66
2023/06/13 08:41:13;;;;;;;47.20;4.63;;;;;;;25.16;46.10;99299.38;7310868;19;129557;-66
2023/06/13 08:43:38;;;;;;;57.20;5.18;;;;;;;25.20;47.44;99294.59;7312644;19;129290;-67
2023/06/13 08:46:04;;;;;;;83.23;6.33;;;;;;;25.13;46.59;99293.63;7312222;19;129405;-64
2023/06/13 08:48:32;;;;;;;86.33;6.43;;;;;;;25.14;47.35;99295.28;7313112;19;129973;-64
2023/06/13 08:51:00;;;;;;;38.10;4.13;;;;;;;25.18;46.64;99296.56;7307778;19;129124;-66
2023/06/13 08:53:28;;;;;;;21.08;3.30;;;;;;;25.20;46.16;99287.53;7315575;19;129745;-66
2023/06/13 08:55:54;;;;;;;73.93;6.15;;;;;;;25.23;46.75;99294.25;7312203;19;131405;-65
2023/06/13 08:58:22;;;;;;;83.33;6.07;;;;;;;25.23;47.18;99283.72;7311011;19;130133;-65
2023/06/13 09:00:48;;;;;;;122.10;8.65;;;;;;;25.26;46.43;99291.28;7310767;19;129076;-65
2023/06/13 09:03:15;;;;;;;34.47;4.13;;;;;;;25.28;46.35;99281.41;7311328;19;129959;-67
2023/06/13 09:05:41;;;;;;;;;;;;;;;25.37;46.38;99280.41;7314217;19;129104;-65
2023/06/13 09:08:07;;;;;;;73.45;6.00;;;;;;;25.32;46.14;99277.44;7308899;19;129813;-64
2023/06/13 09:10:33;;;;;;;133.02;9.60;;;;;;;25.20;46.41;99278.81;7311024;19;129090;-64
2023/06/13 09:12:59;;;;;;;89.10;6.27;;;;;;;25.22;46.27;99275.00;7310380;19;129803;-65
2023/06/13 09:15:26;;;;;;;30.13;3.60;;;;;;;25.24;45.63;99275.66;7313564;19;129506;-64
2023/06/13 09:17:53;;;;;;;61.55;5.28;;;;;;;25.29;45.41;99275.97;7309410;19;129580;-65
2023/06/13 09:20:19;;;;;;;55.70;5.75;;;;;;;25.27;45.37;99269.25;7311154;19;129623;-69
2023/06/13 09:22:46;;;;;;;75.07;5.77;;;;;;;25.27;45.70;99269.25;7309892;19;129653;-65
2023/06/13 09:25:16;;;;;;;96.55;7.05;;;;;;;25.27;45.63;99261.34;7312744;19;129791;-65
2023/06/13 09:27:42;;;;;;;37.72;3.92;;;;;;;25.24;45.24;99257.22;7310077;19;129801;-66
2023/06/13 09:30:08;;;;;;;67.93;6.00;;;;;;;25.19;45.59;99258.72;7312216;19;129852;-65
2023/06/13 09:32:35;;;;;;;;;;;;;;;25.18;46.90;99255.31;7305531;19;130652;-63
2023/06/13 09:35:04;;;;;;;112.90;8.00;;;;;;;25.27;46.47;99258.72;7310739;19;129925;-64
2023/06/13 09:37:32;;;;;;;219.60;14.68;;;;;;;25.22;46.12;99255.78;7309091;19;130077;-67
2023/06/13 09:40:04;;;;;;;39.33;4.10;;;;;;;25.29;45.71;99251.44;7311457;19;129300;-66
2023/06/13 09:44:57;;;;;;;85.07;6.60;;;;;;;25.32;46.16;99245.88;7319440;19;129264;-39
2023/06/13 09:47:25;;;;;;;91.73;7.07;;;;;;;25.18;46.04;99233.41;7312900;19;130094;-39
2023/06/13 09:49:58;;;;;;;44.00;3.95;;;;;;;25.24;46.44;99238.00;7316652;19;129609;-40
2023/06/13 09:52:27;;;;;;;13.52;2.78;;;;;;;25.27;45.90;99240.31;7316319;19;129423;-40
2023/06/13 09:54:53;;;;;;;72.82;5.72;;;;;;;25.24;45.52;99232.72;7316488;19;129751;-39
2023/06/13 09:57:21;;;;;;;63.33;5.10;;;;;;;25.31;45.25;99239.78;7313886;19;130442;-40
2023/06/13 09:59:48;;;;;;;43.60;4.28;;;;;;;25.31;45.22;99236.31;7314108;19;130059;-38
2023/06/13 10:02:20;;;;;;;36.42;3.97;;;;;;;25.35;46.47;99224.50;7319305;19;129067;-42
2023/06/13 10:04:50;;;;;;;66.13;5.50;;;;;;;25.32;46.47;99219.56;7317473;19;129892;-39
2023/06/13 10:07:17;;;;;;;76.90;5.95;;;;;;;25.33;45.34;99221.19;7316677;19;129264;-41
2023/06/13 10:09:43;;;;;;;35.53;3.97;;;;;;;25.40;44.80;99227.44;7314142;19;129044;-40
2023/06/13 10:12:11;;;;;;;53.90;5.03;;;;;;;25.37;44.01;99227.78;7310449;19;129136;-39
2023/06/13 10:14:40;;;;;;;40.03;4.28;;;;;;;25.38;44.77;99226.78;7312776;19;129843;-38
2023/06/13 10:17:10;;;;;;;101.88;7.00;;;;;;;25.33;45.78;99231.72;7311184;19;129776;-39
2023/06/13 10:19:38;;;;;;;42.53;4.18;;;;;;;25.29;45.30;99225.13;7316653;19;129104;-40
2023/06/13 10:22:08;;;;;;;67.78;5.85;;;;;;;25.30;45.86;99232.06;7316716;19;130346;-37
2023/06/13 10:24:37;;;;;;;53.58;4.80;;;;;;;25.26;45.83;99228.13;7312145;19;130159;-40
2023/06/13 10:27:10;;;;;;;102.93;7.65;;;;;;;25.13;46.92;99204.19;7315951;19;129825;-42
2023/06/13 10:30:02;;;;;;;11.02;2.50;;;;;;;25.28;46.27;99211.19;7316443;19;129297;-39
2023/06/13 10:33:05;;;;;;;33.15;3.80;;;;;;;25.28;46.89;99202.47;7312892;19;129612;-39
2023/06/13 10:36:08;;;;;;;29.35;3.50;;;;;;;25.30;46.30;99201.28;7316989;19;129967;-37
2023/06/13 10:38:48;;;;;;;48.03;4.40;;;;;;;25.33;46.25;99200.13;7314270;19;130491;-38
2023/06/13 10:41:28;;;;;;;41.67;4.25;;;;;;;25.23;45.64;99179.31;7316869;19;129060;-40
2023/06/13 10:44:07;;;;;;;67.30;5.43;;;;;;;25.31;45.86;99191.59;7313483;19;129916;-39
2023/06/13 10:46:34;;;;;;;26.67;3.92;;;;;;;25.23;44.96;99191.63;7315201;19;129379;-39
2023/06/13 10:49:01;;;;;;;53.80;5.40;;;;;;;25.19;45.67;99177.16;7314088;19;129828;-42
2023/06/13 10:51:30;;;;;;;91.82;6.90;;;;;;;25.30;45.29;99193.38;7310016;19;129492;-40
2023/06/13 10:54:02;;;;;;;86.35;6.82;;;;;;;25.32;46.01;99198.50;7309351;19;129600;-39
2023/06/13 10:56:29;;;;;;;17.65;2.97;;;;;;;25.31;44.74;99191.59;7307627;19;129516;-38
2023/06/13 10:59:03;;;;;;;26.67;3.55;;;;;;;25.24;46.26;99180.09;7308028;19;129686;-40
2023/06/13 11:01:30;;;;;;;85.78;6.60;;;;;;;25.32;45.06;99193.25;7307651;19;129289;-38
2023/06/13 11:04:11;;;;;;;60.92;4.95;;;;;;;25.32;46.41;99187.97;7307101;19;129199;-40
2023/06/13 11:06:38;;;;;;;90.65;7.05;;;;;;;25.12;44.34;99169.16;7310830;19;129813;-40
2023/06/13 11:09:14;;;;;;;82.07;6.43;;;;;;;25.24;46.82;99186.19;7317025;19;129509;-41
2023/06/13 11:11:45;;;;;;;31.65;3.60;;;;;;;25.24;45.76;99180.09;7314949;19;129895;-40
2023/06/13 11:14:10;;;;;;;64.18;5.28;;;;;;;25.25;45.03;99174.69;7314645;19;129319;-40
2023/06/13 11:16:38;;;;;;;82.53;6.17;;;;;;;25.20;45.07;99174.38;7312536;19;129323;-40
2023/06/13 11:19:15;;;;;;;88.25;6.72;;;;;;;25.28;45.81;99178.78;7311379;19;129399;-39
2023/06/13 11:22:05;;;;;;;29.77;3.63;;;;;;;25.43;44.62;99169.19;7311758;19;130846;-41
2023/06/13 11:24:34;;;;;;;30.73;3.83;;;;;;;25.36;45.08;99163.78;7310022;19;129536;-39